Time;durP1;ratioP1;P1;durP2;ratioP2;P2;SDS_P1;SDS_P2;PMS_P1;PMS_P2;Temp;Humidity;BMP_temperature;BMP_pressure;BME280_temperature;BME280_humidity;BME280_pressure;Samples;Min_cycle;Max_cycle;Signal;HPM_P1;HPM_P2
2022/05/10 00:00:57;;;;;;;12.50;6.10;;;13.50;99.90;;;;;;5062162;28;20095;-82
2022/05/10 00:03:34;;;;;;;14.10;6.03;;;13.50;99.90;;;;;;5065144;28;20124;-81
2022/05/10 00:06:00;;;;;;;11.67;6.07;;;13.50;99.90;;;;;;5065471;28;20474;-82
2022/05/10 00:08:26;;;;;;;12.73;5.63;;;13.50;99.90;;;;;;5066572;28;20080;-82
2022/05/10 00:10:52;;;;;;;10.63;5.50;;;13.60;99.90;;;;;;5065214;28;20111;-82
2022/05/10 00:13:18;;;;;;;11.90;5.70;;;13.60;99.90;;;;;;5050219;28;20725;-82
2022/05/10 00:15:44;;;;;;;13.40;6.10;;;13.60;99.90;;;;;;5048316;28;20056;-82
2022/05/10 00:18:15;;;;;;;10.93;6.00;;;13.50;99.90;;;;;;5045308;28;20119;-82
2022/05/10 00:20:42;;;;;;;9.38;5.32;;;13.60;99.90;;;;;;5067370;28;20060;-81
2022/05/10 00:23:08;;;;;;;12.13;5.83;;;13.60;99.90;;;;;;5066220;28;20120;-82
2022/05/10 00:25:33;;;;;;;12.50;5.13;;;13.50;99.90;;;;;;5067089;28;20532;-82
2022/05/10 00:28:00;;;;;;;12.50;5.47;;;13.50;99.90;;;;;;5066666;28;20048;-82
2022/05/10 00:30:27;;;;;;;10.53;5.73;;;13.50;99.90;;;;;;5067433;28;20041;-81
2022/05/10 00:32:53;;;;;;;9.90;5.53;;;13.50;99.90;;;;;;5083382;28;20057;-81
2022/05/10 00:35:30;;;;;;;12.90;6.10;;;13.50;99.90;;;;;;5064277;28;20139;-82
2022/05/10 00:37:58;;;;;;;9.03;5.53;;;13.50;99.90;;;;;;5063777;28;20055;-82
2022/05/10 00:40:31;;;;;;;9.20;5.10;;;13.40;99.90;;;;;;5066881;28;20051;-82
2022/05/10 00:43:09;;;;;;;9.27;5.67;;;13.40;99.90;;;;;;5066778;28;20111;-82
2022/05/10 00:46:00;;;;;;;11.50;5.50;;;13.40;99.90;;;;;;5063738;28;20058;-83
2022/05/10 00:48:35;;;;;;;12.67;6.17;;;13.40;99.90;;;;;;5066429;28;20044;-82
2022/05/10 00:51:25;;;;;;;13.73;5.50;;;13.30;99.90;;;;;;5064384;28;20052;-82
2022/05/10 00:54:26;;;;;;;11.60;5.70;;;13.40;99.90;;;;;;5067886;28;20072;-82
2022/05/10 00:56:57;;;;;;;11.27;5.17;;;13.40;99.90;;;;;;5064258;28;20048;-82
2022/05/10 00:59:35;;;;;;;11.60;5.10;;;13.30;99.90;;;;;;5066802;28;20048;-82
2022/05/10 01:02:10;;;;;;;10.47;5.33;;;13.30;99.90;;;;;;5064510;28;20127;-82
2022/05/10 01:04:40;;;;;;;9.53;5.43;;;13.30;99.90;;;;;;5065326;28;20049;-82
2022/05/10 01:07:43;;;;;;;10.13;5.50;;;13.20;99.90;;;;;;5064989;28;20105;-82
2022/05/10 01:10:22;;;;;;;11.47;5.00;;;13.20;99.90;;;;;;5039751;28;20056;-82
2022/05/10 01:12:53;;;;;;;9.93;5.20;;;13.20;99.90;;;;;;5067753;28;20058;-82
2022/05/10 01:15:23;;;;;;;10.07;4.80;;;13.20;99.90;;;;;;5065049;28;20103;-82
2022/05/10 01:17:53;;;;;;;11.73;4.93;;;13.20;99.90;;;;;;5064664;28;20063;-82
2022/05/10 01:20:25;;;;;;;13.43;5.80;;;13.20;99.90;;;;;;5065871;28;20063;-81
2022/05/10 01:23:13;;;;;;;8.27;5.50;;;13.20;99.90;;;;;;5063191;28;20045;-81
2022/05/10 01:26:10;;;;;;;10.23;5.60;;;13.20;99.90;;;;;;5064085;28;20052;-81
2022/05/10 01:28:41;;;;;;;12.87;5.23;;;13.30;99.90;;;;;;5060741;28;20053;-82
2022/05/10 01:31:15;;;;;;;8.98;5.40;;;13.30;99.90;;;;;;5064572;28;20083;-81
2022/05/10 01:34:09;;;;;;;10.30;4.70;;;13.30;99.90;;;;;;5065801;28;20971;-82
2022/05/10 01:36:40;;;;;;;10.83;5.60;;;13.40;99.90;;;;;;5065300;28;20055;-82
2022/05/10 01:39:18;;;;;;;10.87;6.07;;;13.30;99.90;;;;;;5065970;28;20044;-81
2022/05/10 01:41:47;;;;;;;9.57;6.10;;;13.30;99.90;;;;;;5063880;28;20048;-82
2022/05/10 01:44:54;;;;;;;10.53;6.30;;;13.30;99.90;;;;;;5048091;28;20113;-82
2022/05/10 01:47:29;;;;;;;11.03;7.00;;;13.30;99.90;;;;;;5050074;28;20056;-81
2022/05/10 01:50:14;;;;;;;10.30;6.33;;;13.30;99.90;;;;;;5050847;28;20040;-82
2022/05/10 01:52:58;;;;;;;8.33;6.50;;;13.40;99.90;;;;;;5063264;28;20067;-83
2022/05/10 01:55:31;;;;;;;15.93;7.00;;;13.40;99.90;;;;;;5063605;28;20134;-81
2022/05/10 01:58:01;;;;;;;14.67;6.60;;;13.40;99.90;;;;;;5063437;28;20064;-83
2022/05/10 02:00:28;;;;;;;10.23;6.63;;;13.40;99.90;;;;;;5068995;28;20044;-81
2022/05/10 02:03:22;;;;;;;8.83;6.30;;;13.40;99.90;;;;;;5063197;28;20072;-82
2022/05/10 02:06:02;;;;;;;14.73;7.20;;;13.30;99.90;;;;;;5063504;28;20053;-81
2022/05/10 02:08:33;;;;;;;12.83;7.70;;;13.30;99.90;;;;;;5066142;28;20080;-82
2022/05/10 02:11:04;;;;;;;12.43;6.90;;;13.20;99.90;;;;;;5065825;28;20091;-82
2022/05/10 02:13:44;;;;;;;13.73;7.60;;;13.20;99.90;;;;;;5064826;28;20064;-81
2022/05/10 02:16:23;;;;;;;10.57;7.50;;;13.20;99.90;;;;;;5064101;28;20798;-82
2022/05/10 02:18:58;;;;;;;12.90;7.03;;;13.20;99.90;;;;;;5062533;28;20045;-81
2022/05/10 02:21:33;;;;;;;11.30;7.63;;;13.20;99.90;;;;;;5067359;28;20051;-82
2022/05/10 02:24:14;;;;;;;13.57;8.20;;;13.10;99.90;;;;;;5065603;28;20065;-81
2022/05/10 02:26:43;;;;;;;13.00;7.95;;;13.10;99.90;;;;;;5067521;28;20041;-82
2022/05/10 02:29:18;;;;;;;15.87;8.30;;;13.10;99.90;;;;;;5067410;28;20057;-82
2022/05/10 02:34:53;;;;;;;13.20;8.33;;;13.10;99.90;;;;;;5068556;28;20044;-82
2022/05/10 02:37:18;;;;;;;15.77;7.87;;;13.00;99.90;;;;;;5068772;28;20033;-82
2022/05/10 02:39:44;;;;;;;12.40;8.63;;;13.00;99.90;;;;;;5067058;28;20153;-82
2022/05/10 02:42:12;;;;;;;15.47;8.63;;;13.10;99.90;;;;;;5067710;28;20053;-82
2022/05/10 02:44:38;;;;;;;14.07;8.73;;;13.10;99.90;;;;;;5068262;28;20048;-82
2022/05/10 02:47:06;;;;;;;13.47;8.93;;;13.20;99.90;;;;;;5068948;28;20045;-82
2022/05/10 02:49:35;;;;;;;20.40;9.70;;;13.20;99.90;;;;;;5067736;28;20549;-82
2022/05/10 02:52:00;;;;;;;19.73;10.23;;;13.30;99.90;;;;;;5066661;28;20064;-82
2022/05/10 02:54:26;;;;;;;14.53;9.77;;;13.30;99.90;;;;;;5048801;28;20052;-82
2022/05/10 02:56:52;;;;;;;17.50;9.57;;;13.30;99.90;;;;;;5068027;28;20059;-81
2022/05/10 02:59:27;;;;;;;13.73;9.57;;;13.30;99.90;;;;;;5067985;28;20048;-82
2022/05/10 03:02:12;;;;;;;16.70;10.03;;;13.30;99.90;;;;;;5068687;28;20041;-81
2022/05/10 03:04:44;;;;;;;15.77;10.77;;;13.30;99.90;;;;;;5067009;28;20052;-81
2022/05/10 03:07:10;;;;;;;;;;;13.30;99.90;;;;;;5070831;28;20041;-81
2022/05/10 03:09:35;;;;;;;17.80;10.30;;;13.30;99.90;;;;;;5069508;28;19956;-82
2022/05/10 03:12:06;;;;;;;14.80;10.77;;;13.30;99.90;;;;;;5068197;28;20045;-82
2022/05/10 03:14:32;;;;;;;17.70;11.33;;;13.40;99.90;;;;;;5067809;28;20044;-81
2022/05/10 03:16:58;;;;;;;20.83;11.23;;;13.40;99.90;;;;;;5068767;28;20064;-82
2022/05/10 03:19:24;;;;;;;16.03;10.23;;;13.40;99.90;;;;;;5067596;28;20590;-82
2022/05/10 03:21:49;;;;;;;17.00;11.27;;;13.40;99.90;;;;;;5070330;28;20554;-81
2022/05/10 03:24:15;;;;;;;20.37;11.03;;;13.40;99.90;;;;;;5067082;28;20033;-82
2022/05/10 03:26:47;;;;;;;20.87;11.47;;;13.40;99.90;;;;;;5069545;28;20104;-81
2022/05/10 03:29:13;;;;;;;18.40;10.68;;;13.40;99.90;;;;;;5069656;28;20112;-81
2022/05/10 03:31:38;;;;;;;16.90;10.83;;;13.40;99.90;;;;;;5067846;28;20135;-82
2022/05/10 03:36:48;;;;;;;19.47;10.73;;;13.40;99.90;;;;;;5066867;28;20609;-83
2022/05/10 03:39:14;;;;;;;16.37;11.30;;;13.30;99.90;;;;;;5050876;28;20032;-81
2022/05/10 03:41:40;;;;;;;16.27;11.70;;;13.30;99.90;;;;;;5067508;28;20503;-81
2022/05/10 03:44:06;;;;;;;15.77;11.37;;;13.30;99.90;;;;;;5066362;28;20139;-81
2022/05/10 03:46:32;;;;;;;19.23;12.20;;;13.30;99.90;;;;;;5052151;28;20033;-82
2022/05/10 03:48:58;;;;;;;22.00;12.47;;;13.30;99.90;;;;;;5066699;28;20068;-82
2022/05/10 03:51:24;;;;;;;20.40;12.77;;;13.30;99.90;;;;;;5050313;28;20045;-81
2022/05/10 03:53:49;;;;;;;18.13;11.83;;;13.30;99.90;;;;;;5065425;28;20052;-82
2022/05/10 03:56:15;;;;;;;17.87;11.93;;;13.30;99.90;;;;;;5064444;28;20044;-82
2022/05/10 03:58:41;;;;;;;21.33;13.00;;;13.30;99.90;;;;;;5067004;28;20048;-82
2022/05/10 04:01:07;;;;;;;23.67;13.40;;;13.30;99.90;;;;;;5066613;28;20492;-82
2022/05/10 04:03:34;;;;;;;18.77;12.87;;;13.30;99.90;;;;;;5048757;28;20052;-83
2022/05/10 04:06:00;;;;;;;18.63;12.47;;;13.30;99.90;;;;;;5065056;28;20048;-82
2022/05/10 04:08:27;;;;;;;20.80;12.07;;;13.30;99.90;;;;;;5065538;28;20044;-82
2022/05/10 04:10:53;;;;;;;20.07;12.70;;;13.20;99.90;;;;;;5066254;28;20040;-81
2022/05/10 04:13:19;;;;;;;15.87;12.20;;;13.20;99.90;;;;;;5050503;28;20052;-81
2022/05/10 04:15:44;;;;;;;16.47;12.10;;;13.30;99.90;;;;;;5068623;28;20032;-83
2022/05/10 04:18:10;;;;;;;19.73;12.07;;;13.20;99.90;;;;;;5049055;28;20131;-82
2022/05/10 04:20:36;;;;;;;18.83;12.83;;;13.20;99.90;;;;;;5066821;28;20057;-81
2022/05/10 04:23:02;;;;;;;17.20;12.20;;;13.20;99.90;;;;;;5068431;28;20047;-82
2022/05/10 04:25:28;;;;;;;19.10;12.70;;;13.10;99.90;;;;;;5048475;28;20041;-82
2022/05/10 04:27:54;;;;;;;18.53;12.47;;;13.20;99.90;;;;;;5069887;28;20044;-82
2022/05/10 04:30:21;;;;;;;18.67;12.77;;;13.20;99.90;;;;;;5049254;28;20067;-82
2022/05/10 04:32:47;;;;;;;15.67;12.00;;;13.20;99.90;;;;;;5033625;28;20044;-82
2022/05/10 04:35:13;;;;;;;21.03;12.73;;;13.20;99.90;;;;;;5067530;28;20045;-81
2022/05/10 04:37:39;;;;;;;23.63;13.30;;;13.20;99.90;;;;;;5063187;28;20048;-82
2022/05/10 04:42:52;;;;;;;20.97;13.97;;;13.20;99.90;;;;;;5065899;28;20136;-82
2022/05/10 04:45:18;;;;;;;21.13;13.43;;;13.20;99.90;;;;;;5066855;28;20052;-82
2022/05/10 04:47:45;;;;;;;21.97;14.40;;;13.20;99.90;;;;;;5065662;28;20048;-82
2022/05/10 04:50:11;;;;;;;24.13;14.17;;;13.20;99.90;;;;;;5065095;28;20062;-82
2022/05/10 04:52:38;;;;;;;20.20;14.40;;;13.30;99.90;;;;;;5047573;28;20055;-81
2022/05/10 04:55:07;;;;;;;21.87;14.30;;;13.30;99.90;;;;;;5066412;28;20064;-82
2022/05/10 04:57:36;;;;;;;23.00;15.13;;;13.30;99.90;;;;;;5065550;28;20084;-82
2022/05/10 05:00:04;;;;;;;21.80;13.70;;;13.30;99.90;;;;;;5067221;28;20123;-81
2022/05/10 05:02:30;;;;;;;18.77;14.47;;;13.40;99.90;;;;;;5064582;28;20407;-82
2022/05/10 05:04:56;;;;;;;24.00;14.60;;;13.40;99.90;;;;;;5064478;28;20045;-81
2022/05/10 05:07:22;;;;;;;21.20;13.77;;;13.40;99.90;;;;;;5048417;28;20040;-82
2022/05/10 05:09:47;;;;;;;20.57;13.47;;;13.50;99.90;;;;;;5063489;28;20045;-82
2022/05/10 05:12:13;;;;;;;22.00;15.00;;;13.50;99.90;;;;;;5067070;28;20060;-81
2022/05/10 05:14:39;;;;;;;22.87;14.53;;;13.60;99.90;;;;;;5048852;28;20055;-79
2022/05/10 05:17:04;;;;;;;22.67;14.63;;;13.60;99.90;;;;;;5065831;28;20048;-82
2022/05/10 05:19:30;;;;;;;22.93;14.23;;;13.70;99.90;;;;;;5060298;28;20443;-79
2022/05/10 05:21:56;;;;;;;21.40;15.07;;;13.70;99.90;;;;;;5065817;28;20044;-79
2022/05/10 05:24:22;;;;;;;18.03;14.07;;;13.80;99.90;;;;;;5066443;28;20048;-80
2022/05/10 05:26:47;;;;;;;23.77;15.47;;;13.80;99.90;;;;;;5061983;28;20049;-79
2022/05/10 05:29:14;;;;;;;23.23;15.03;;;13.90;99.90;;;;;;5067000;28;20339;-79
2022/05/10 05:31:40;;;;;;;24.77;15.17;;;13.90;99.90;;;;;;5064084;28;20047;-79
2022/05/10 05:34:06;;;;;;;25.37;15.40;;;14.00;99.90;;;;;;5065272;28;20087;-78
2022/05/10 05:36:32;;;;;;;22.50;14.73;;;14.00;99.90;;;;;;5073024;28;20048;-79
2022/05/10 05:38:57;;;;;;;24.73;14.73;;;14.10;99.90;;;;;;5073216;28;20087;-80
2022/05/10 05:41:23;;;;;;;23.37;14.43;;;14.10;99.90;;;;;;5063302;28;20546;-79
2022/05/10 05:43:49;;;;;;;23.70;15.33;;;14.20;99.90;;;;;;5042747;28;20052;-80
2022/05/10 05:46:15;;;;;;;22.57;14.77;;;14.30;99.90;;;;;;5038375;28;20055;-81
2022/05/10 05:48:41;;;;;;;20.43;14.37;;;14.40;99.90;;;;;;5049162;28;20062;-79
2022/05/10 05:51:07;;;;;;;22.27;14.50;;;14.50;99.90;;;;;;5058183;28;20041;-79
2022/05/10 05:53:33;;;;;;;21.53;14.70;;;14.50;99.90;;;;;;5064710;28;20063;-79
2022/05/10 05:56:04;;;;;;;23.57;14.30;;;14.60;99.90;;;;;;5063159;28;20053;-80
2022/05/10 05:58:30;;;;;;;20.98;15.18;;;14.70;99.90;;;;;;5061376;28;20052;-79
2022/05/10 06:00:56;;;;;;;25.50;14.83;;;14.70;99.90;;;;;;5068471;28;20045;-79
2022/05/10 06:03:22;;;;;;;21.47;14.37;;;14.80;99.90;;;;;;5067040;28;20125;-79
2022/05/10 06:05:49;;;;;;;24.70;14.50;;;14.80;99.90;;;;;;5066717;28;20029;-79
2022/05/10 06:08:16;;;;;;;22.33;14.07;;;14.90;99.90;;;;;;5068888;28;20044;-79
2022/05/10 06:10:42;;;;;;;23.93;16.40;;;15.00;99.90;;;;;;5065581;28;20086;-79
2022/05/10 06:13:09;;;;;;;22.57;15.73;;;15.00;99.90;;;;;;5062894;28;20044;-79
2022/05/10 06:15:36;;;;;;;18.33;13.90;;;15.10;99.90;;;;;;5066050;28;20040;-78
2022/05/10 06:18:04;;;;;;;20.30;13.60;;;15.20;99.90;;;;;;5066716;28;20071;-79
2022/05/10 06:20:30;;;;;;;18.85;13.35;;;15.30;99.90;;;;;;5068846;28;20053;-77
2022/05/10 06:22:56;;;;;;;20.20;13.70;;;15.40;99.90;;;;;;5069923;28;20071;-77
2022/05/10 06:25:23;;;;;;;24.70;14.30;;;15.50;99.90;;;;;;5067300;28;20036;-78
2022/05/10 06:27:51;;;;;;;20.87;14.17;;;15.60;99.90;;;;;;5071658;28;20040;-78
2022/05/10 06:30:19;;;;;;;22.30;14.07;;;15.80;99.90;;;;;;5069933;28;20512;-77
2022/05/10 06:32:46;;;;;;;24.27;13.80;;;15.90;99.90;;;;;;5070619;28;20477;-77
2022/05/10 06:35:12;;;;;;;22.23;13.90;;;16.10;99.90;;;;;;5070685;28;20063;-77
2022/05/10 06:40:22;;;;;;;23.55;14.52;;;16.40;99.90;;;;;;5071414;28;20095;-77
2022/05/10 06:42:48;;;;;;;23.30;14.00;;;16.50;99.90;;;;;;5052351;28;20049;-77
2022/05/10 06:45:16;;;;;;;18.55;12.48;;;16.70;99.90;;;;;;5067734;28;20587;-78
2022/05/10 06:47:43;;;;;;;22.38;13.30;;;16.90;99.90;;;;;;5061161;28;20045;-77
2022/05/10 06:50:12;;;;;;;17.13;12.23;;;17.10;99.90;;;;;;5066865;28;20044;-77
2022/05/10 06:52:39;;;;;;;19.42;12.50;;;17.30;99.90;;;;;;5066841;28;20063;-77
2022/05/10 06:55:05;;;;;;;16.63;12.02;;;17.50;99.90;;;;;;5069748;28;20087;-77
2022/05/10 06:57:31;;;;;;;18.48;11.63;;;17.60;99.90;;;;;;5068661;28;20107;-76
2022/05/10 06:59:57;;;;;;;17.17;12.05;;;17.70;99.90;;;;;;5053391;28;20492;-77
2022/05/10 07:02:24;;;;;;;20.95;11.55;;;17.70;99.90;;;;;;5068356;28;20091;-77
2022/05/10 07:04:53;;;;;;;15.35;11.27;;;17.80;99.90;;;;;;5069573;28;20092;-77
2022/05/10 07:07:19;;;;;;;16.42;12.05;;;17.80;99.90;;;;;;5052308;28;20074;-77
2022/05/10 07:09:45;;;;;;;15.23;11.35;;;17.90;99.90;;;;;;5052722;28;20044;-77
2022/05/10 07:12:11;;;;;;;21.00;11.75;;;17.90;99.90;;;;;;5050114;28;20789;-77
2022/05/10 07:14:37;;;;;;;17.15;11.15;;;18.00;99.90;;;;;;5070470;28;20044;-77
2022/05/10 07:17:03;;;;;;;17.40;10.77;;;18.20;99.90;;;;;;5066338;28;20120;-77
2022/05/10 07:19:29;;;;;;;19.98;11.60;;;18.40;99.90;;;;;;5067532;28;20055;-77
2022/05/10 07:21:54;;;;;;;18.58;11.20;;;18.60;99.90;;;;;;5068893;28;20040;-77
2022/05/10 07:24:20;;;;;;;17.23;11.32;;;18.80;99.90;;;;;;5068496;28;20557;-77
2022/05/10 07:26:47;;;;;;;14.93;10.77;;;19.00;99.90;;;;;;5068848;28;20055;-77
2022/05/10 07:29:15;;;;;;;15.27;10.75;;;19.30;99.90;;;;;;5068713;28;20110;-76
2022/05/10 07:31:41;;;;;;;22.92;10.63;;;19.50;99.90;;;;;;5066862;28;20057;-77
2022/05/10 07:34:08;;;;;;;22.10;11.05;;;19.70;99.90;;;;;;5067847;28;20045;-77
2022/05/10 07:36:34;;;;;;;15.63;10.57;;;19.80;99.90;;;;;;5071838;28;20052;-78
2022/05/10 07:39:11;;;;;;;14.75;10.27;;;20.00;99.90;;;;;;5066912;28;20127;-77
2022/05/10 07:41:38;;;;;;;14.93;9.57;;;20.20;99.90;;;;;;5065835;28;20079;-77
2022/05/10 07:44:05;;;;;;;12.95;9.48;;;20.30;99.90;;;;;;5069467;28;20079;-76
2022/05/10 07:46:31;;;;;;;14.93;9.00;;;20.40;99.90;;;;;;5050606;28;20048;-78
2022/05/10 07:48:57;;;;;;;16.25;10.23;;;20.40;99.90;;;;;;5064245;28;20056;-76
2022/05/10 07:51:23;;;;;;;13.48;8.90;;;20.50;99.30;;;;;;5064492;28;20067;-76
2022/05/10 07:53:49;;;;;;;17.02;9.15;;;20.60;97.30;;;;;;5062777;28;20064;-77
2022/05/10 07:56:15;;;;;;;14.63;9.27;;;20.70;96.30;;;;;;5068264;28;20414;-77
2022/05/10 07:58:41;;;;;;;16.45;8.82;;;20.80;96.10;;;;;;5065321;28;20100;-75
2022/05/10 08:01:07;;;;;;;13.85;9.30;;;21.00;95.00;;;;;;5062752;28;20086;-78
2022/05/10 08:03:34;;;;;;;14.88;9.07;;;21.20;93.30;;;;;;5060662;28;20053;-77
2022/05/10 08:05:59;;;;;;;18.23;9.13;;;21.30;92.30;;;;;;5068395;28;20036;-77
2022/05/10 08:08:28;;;;;;;19.63;10.80;;;21.40;90.10;;;;;;5069007;28;20053;-77
2022/05/10 08:10:54;;;;;;;16.70;10.02;;;21.60;90.80;;;;;;5063574;28;20032;-76
2022/05/10 08:13:23;;;;;;;13.60;9.25;;;21.70;91.50;;;;;;5059614;28;20040;-78
2022/05/10 08:15:50;;;;;;;15.13;10.02;;;21.80;89.00;;;;;;5066061;28;20049;-77
2022/05/10 08:18:18;;;;;;;15.15;9.98;;;21.90;87.40;;;;;;5065928;28;20045;-79
2022/05/10 08:20:44;;;;;;;14.70;9.57;;;21.90;87.60;;;;;;5057630;28;20060;-77
2022/05/10 08:23:14;;;;;;;13.30;8.93;;;22.00;86.90;;;;;;5057254;28;20095;-77
2022/05/10 08:25:40;;;;;;;15.63;9.15;;;22.10;83.70;;;;;;5071795;28;20056;-76
2022/05/10 08:28:12;;;;;;;11.63;8.32;;;22.30;81.70;;;;;;5063938;28;20045;-77
2022/05/10 08:30:38;;;;;;;15.25;8.25;;;22.30;78.90;;;;;;5064134;28;20048;-77
2022/05/10 08:33:03;;;;;;;11.95;8.48;;;22.50;78.90;;;;;;5048152;28;20044;-78
2022/05/10 08:35:29;;;;;;;11.13;8.13;;;22.50;76.30;;;;;;5062496;28;20085;-77
2022/05/10 08:37:55;;;;;;;12.52;7.90;;;22.60;77.00;;;;;;5068328;28;20049;-77
2022/05/10 08:40:29;;;;;;;17.15;7.93;;;22.60;75.10;;;;;;5069913;28;20029;-77
2022/05/10 08:42:58;;;;;;;15.50;8.20;;;22.40;71.10;;;;;;5065759;28;20459;-77
2022/05/10 08:45:26;;;;;;;13.95;8.07;;;22.30;73.10;;;;;;5067504;28;21854;-77
2022/05/10 08:47:53;;;;;;;15.77;7.88;;;22.20;75.60;;;;;;5067834;28;20111;-79
2022/05/10 08:50:19;;;;;;;12.65;7.05;;;22.00;75.90;;;;;;5064511;28;20055;-78
2022/05/10 08:52:47;;;;;;;11.10;7.30;;;21.90;77.10;;;;;;5060198;28;20049;-77
2022/05/10 08:55:19;;;;;;;15.90;7.18;;;21.90;76.50;;;;;;5060072;28;20043;-79
2022/05/10 08:57:56;;;;;;;13.27;7.78;;;21.80;78.50;;;;;;5064903;28;20108;-77
2022/05/10 09:00:40;;;;;;;10.93;7.15;;;21.70;76.60;;;;;;5059160;28;20056;-77
2022/05/10 09:03:44;;;;;;;11.32;6.43;;;21.70;75.40;;;;;;5061593;28;20044;-77
2022/05/10 09:06:28;;;;;;;11.70;7.10;;;21.70;80.20;;;;;;5067311;28;20074;-77
2022/05/10 09:09:23;;;;;;;13.77;7.55;;;21.60;76.60;;;;;;5066250;28;20053;-78
2022/05/10 09:12:03;;;;;;;12.50;7.30;;;21.60;77.40;;;;;;5065341;28;20113;-77
2022/05/10 09:14:33;;;;;;;13.93;7.30;;;21.60;78.00;;;;;;5064940;28;20045;-77
2022/05/10 09:17:00;;;;;;;9.60;7.00;;;21.60;82.30;;;;;;5066543;28;20119;-78
2022/05/10 09:19:40;;;;;;;10.88;7.55;;;21.60;80.50;;;;;;5066743;28;20107;-78
2022/05/10 09:22:31;;;;;;;10.82;7.30;;;21.70;80.50;;;;;;5064903;28;20090;-78
2022/05/10 09:24:57;;;;;;;13.23;7.85;;;21.70;82.60;;;;;;5059509;28;20049;-78
2022/05/10 09:27:31;;;;;;;9.77;7.50;;;21.80;82.70;;;;;;5055597;28;20040;-77
2022/05/10 09:29:57;;;;;;;10.20;8.10;;;21.80;81.50;;;;;;5060709;28;20051;-77
2022/05/10 09:35:27;;;;;;;12.38;8.30;;;21.70;83.00;;;;;;5073851;28;20067;-77
2022/05/10 09:38:06;;;;;;;17.48;8.50;;;21.70;83.00;;;;;;5073403;28;20051;-78
2022/05/10 09:40:35;;;;;;;11.45;8.23;;;21.80;83.60;;;;;;5057313;28;20048;-77
2022/05/10 09:43:32;;;;;;;9.68;7.60;;;21.70;84.20;;;;;;5073000;28;20055;-79
2022/05/10 09:46:06;;;;;;;10.70;7.95;;;21.80;86.00;;;;;;5067382;28;20048;-78
2022/05/10 09:48:32;;;;;;;10.77;8.20;;;21.70;86.60;;;;;;5066502;28;20064;-77
2022/05/10 09:50:58;;;;;;;10.73;7.80;;;21.70;87.80;;;;;;5066522;28;20049;-78
2022/05/10 09:53:33;;;;;;;10.05;7.03;;;21.70;87.90;;;;;;5063140;28;20096;-78
2022/05/10 09:56:11;;;;;;;12.77;7.70;;;21.80;87.70;;;;;;5046322;28;20083;-77
2022/05/10 09:58:38;;;;;;;10.25;7.63;;;21.90;86.60;;;;;;5065872;28;20100;-77
2022/05/10 10:01:15;;;;;;;11.98;7.65;;;22.00;85.40;;;;;;5070029;28;20048;-77
2022/05/10 10:03:43;;;;;;;11.88;7.85;;;22.10;83.40;;;;;;5065416;28;20058;-78
2022/05/10 10:06:24;;;;;;;15.70;8.13;;;22.30;83.00;;;;;;5070385;28;20049;-76
2022/05/10 10:08:53;;;;;;;8.98;6.72;;;22.40;79.50;;;;;;5067618;28;20073;-76
2022/05/10 10:11:21;;;;;;;10.13;7.40;;;22.40;82.40;;;;;;5065896;28;20068;-77
2022/05/10 10:14:06;;;;;;;12.85;7.15;;;22.50;82.00;;;;;;5063813;28;20176;-78
2022/05/10 10:16:53;;;;;;;11.30;7.10;;;22.60;79.10;;;;;;5065375;28;20052;-78
2022/05/10 10:19:25;;;;;;;13.00;7.53;;;22.70;79.50;;;;;;5065221;28;20140;-77
2022/05/10 10:22:22;;;;;;;13.73;7.80;;;22.80;78.40;;;;;;5070383;28;20048;-78
2022/05/10 10:25:08;;;;;;;14.10;7.40;;;22.90;75.20;;;;;;5072929;28;20044;-78
2022/05/10 10:27:43;;;;;;;12.10;7.72;;;23.00;78.60;;;;;;5067653;28;20048;-78
2022/05/10 10:30:46;;;;;;;12.82;7.95;;;23.10;77.40;;;;;;5072551;28;20044;-78
2022/05/10 10:34:00;;;;;;;14.23;7.03;;;23.30;77.40;;;;;;5035483;28;20512;-78
2022/05/10 10:36:36;;;;;;;11.02;7.18;;;23.40;69.20;;;;;;5033482;28;20115;-78
2022/05/10 10:39:25;;;;;;;23.02;8.40;;;23.50;71.70;;;;;;5067456;28;20082;-78
2022/05/10 10:42:14;;;;;;;12.90;7.05;;;23.60;69.60;;;;;;5064403;28;20053;-78
2022/05/10 10:44:50;;;;;;;12.98;7.38;;;23.60;70.20;;;;;;5072721;28;20041;-77
2022/05/10 10:47:40;;;;;;;17.10;8.02;;;24.00;66.90;;;;;;5074652;28;20424;-77
2022/05/10 10:50:23;;;;;;;8.90;7.38;;;24.30;63.30;;;;;;5051231;28;20052;-78
2022/05/10 10:52:49;;;;;;;11.95;7.97;;;24.40;64.70;;;;;;5075463;28;20041;-78
2022/05/10 10:55:18;;;;;;;12.27;8.02;;;24.40;67.10;;;;;;5059452;28;20063;-78
2022/05/10 10:58:16;;;;;;;20.40;8.60;;;24.40;65.70;;;;;;5072930;28;20516;-79
2022/05/10 11:00:51;;;;;;;11.93;7.18;;;24.10;64.40;;;;;;5060470;28;20060;-78
2022/05/10 11:03:33;;;;;;;10.55;7.88;;;23.90;63.90;;;;;;5064340;28;20045;-78
2022/05/10 11:06:17;;;;;;;13.43;8.00;;;23.80;64.50;;;;;;5075522;28;20041;-78
2022/05/10 11:09:02;;;;;;;11.60;7.50;;;23.70;64.50;;;;;;5075639;28;20120;-78
2022/05/10 11:11:59;;;;;;;10.32;7.50;;;23.80;67.90;;;;;;5075472;28;20469;-78
2022/05/10 11:14:49;;;;;;;10.68;7.75;;;24.00;67.20;;;;;;5066601;28;20516;-77
2022/05/10 11:17:35;;;;;;;13.48;8.32;;;24.20;66.00;;;;;;5075825;28;20049;-77
2022/05/10 11:20:10;;;;;;;11.07;7.53;;;24.20;66.10;;;;;;5064574;28;20055;-78
2022/05/10 11:22:47;;;;;;;15.57;7.93;;;24.00;65.90;;;;;;5072853;28;20049;-78
2022/05/10 11:25:44;;;;;;;11.23;8.10;;;23.90;67.30;;;;;;5060062;28;20103;-77
2022/05/10 11:28:29;;;;;;;9.90;7.15;;;23.70;66.90;;;;;;5061049;28;20099;-78
2022/05/10 11:31:16;;;;;;;9.55;7.25;;;23.60;68.20;;;;;;5062615;28;20112;-78
2022/05/10 11:34:05;;;;;;;11.30;8.73;;;23.50;69.50;;;;;;5068093;28;20049;-77
2022/05/10 11:36:42;;;;;;;9.88;7.15;;;23.50;71.10;;;;;;5064008;28;20064;-77
2022/05/10 11:39:29;;;;;;;12.57;7.55;;;23.40;70.30;;;;;;5065733;28;20056;-77
2022/05/10 11:42:24;;;;;;;10.30;7.28;;;23.30;68.40;;;;;;5063182;28;20120;-77
2022/05/10 11:45:07;;;;;;;9.85;7.55;;;23.30;71.50;;;;;;5074695;28;20583;-77
2022/05/10 11:47:49;;;;;;;10.95;7.78;;;23.10;72.60;;;;;;5073708;28;20160;-78
2022/05/10 11:50:40;;;;;;;9.75;7.20;;;23.10;72.80;;;;;;5067350;28;20049;-77
2022/05/10 11:53:41;;;;;;;9.88;6.97;;;23.10;73.40;;;;;;5075236;28;20054;-77
2022/05/10 11:56:08;;;;;;;11.45;6.45;;;23.10;71.40;;;;;;5065235;28;20060;-77
2022/05/10 11:58:35;;;;;;;8.60;6.35;;;23.30;69.80;;;;;;5074431;28;20074;-80
2022/05/10 12:01:11;;;;;;;9.75;6.70;;;23.60;69.30;;;;;;5044995;28;20091;-76
2022/05/10 12:03:41;;;;;;;13.52;6.13;;;23.90;65.20;;;;;;5071151;28;20045;-77
2022/05/10 12:06:31;;;;;;;8.57;6.22;;;24.10;65.40;;;;;;5066478;28;20048;-77
2022/05/10 12:09:04;;;;;;;10.07;6.30;;;24.30;61.20;;;;;;5065095;28;20111;-78
2022/05/10 12:11:33;;;;;;;19.85;13.93;;;24.30;63.10;;;;;;5067104;28;20045;-77
2022/05/10 12:22:18;;;;;;;12.80;5.95;;;24.80;60.70;;;;;;5074964;28;20270;-77
2022/05/10 12:24:48;;;;;;;14.20;5.90;;;24.90;59.60;;;;;;5073833;28;20067;-77
2022/05/10 12:27:15;;;;;;;12.05;6.85;;;24.80;57.70;;;;;;5042252;28;20056;-77
2022/05/10 12:29:40;;;;;;;10.20;6.15;;;24.80;58.90;;;;;;5070820;28;20091;-78
2022/05/10 12:32:29;;;;;;;10.30;6.22;;;24.70;58.90;;;;;;5072650;28;20048;-77
2022/05/10 12:34:58;;;;;;;11.23;6.38;;;24.50;59.30;;;;;;5073603;28;20040;-77
2022/05/10 12:37:33;;;;;;;10.52;6.70;;;24.40;58.70;;;;;;5074161;28;20519;-78
2022/05/10 12:40:11;;;;;;;7.18;5.72;;;24.40;58.70;;;;;;5073295;28;20084;-78
2022/05/10 12:43:01;;;;;;;12.27;6.60;;;24.40;58.60;;;;;;5067348;28;20066;-78
2022/05/10 12:45:52;;;;;;;8.25;5.80;;;24.20;58.50;;;;;;5074498;28;20044;-77
2022/05/10 12:48:33;;;;;;;10.10;6.45;;;24.10;59.20;;;;;;5073724;28;20064;-78
2022/05/10 12:51:26;;;;;;;10.07;6.18;;;24.10;61.20;;;;;;5074861;28;20048;-77
2022/05/10 12:54:07;;;;;;;10.68;6.43;;;24.40;60.20;;;;;;5074731;28;20057;-78
2022/05/10 12:56:50;;;;;;;;;;;24.80;59.20;;;;;;5064451;28;20517;-77
2022/05/10 12:59:30;;;;;;;9.88;5.90;;;25.00;58.90;;;;;;5061179;28;19925;-77
2022/05/10 13:01:57;;;;;;;10.90;5.70;;;25.10;58.20;;;;;;5073444;28;20056;-77
2022/05/10 13:04:29;;;;;;;14.57;5.90;;;25.10;58.30;;;;;;5070753;28;20048;-78
2022/05/10 13:07:13;;;;;;;8.88;6.53;;;25.20;58.20;;;;;;5066263;28;20048;-77
2022/05/10 13:09:51;;;;;;;11.48;5.20;;;25.00;56.80;;;;;;5070415;28;20036;-77
2022/05/10 13:12:28;;;;;;;7.65;5.57;;;24.80;57.20;;;;;;5066167;28;20082;-77
2022/05/10 13:15:02;;;;;;;7.85;5.25;;;24.70;58.60;;;;;;5071353;28;20048;-77
2022/05/10 13:17:31;;;;;;;7.85;5.93;;;24.50;58.90;;;;;;5072035;28;20040;-77
2022/05/10 13:19:58;;;;;;;7.78;5.35;;;24.30;59.20;;;;;;5070753;28;20056;-78
2022/05/10 13:22:26;;;;;;;9.25;5.43;;;24.20;60.20;;;;;;5060099;28;20059;-78
2022/05/10 13:24:55;;;;;;;8.88;5.65;;;24.00;61.10;;;;;;5048727;28;20045;-78